sensor_id;sensor_type;location;lat;lon;timestamp;pressure;altitude;pressure_sealevel;temperature;humidity
3590;BME280;1809;48.470;9.226;2022-09-12T00:01:23;96980.72;;;12.57;100.00
3590;BME280;1809;48.470;9.226;2022-09-12T00:03:54;96987.56;;;12.63;100.00
3590;BME280;1809;48.470;9.226;2022-09-12T00:06:24;96978.03;;;12.57;100.00
3590;BME280;1809;48.470;9.226;2022-09-12T00:08:53;96973.47;;;12.44;100.00
3590;BME280;1809;48.470;9.226;2022-09-12T00:11:18;96979.41;;;12.41;100.00
3590;BME280;1809;48.470;9.226;2022-09-12T00:13:44;96980.09;;;12.33;100.00
3590;BME280;1809;48.470;9.226;2022-09-12T00:16:18;96977.03;;;12.26;100.00
3590;BME280;1809;48.470;9.226;2022-09-12T00:18:45;96981.00;;;12.15;100.00
3590;BME280;1809;48.470;9.226;2022-09-12T00:21:11;96974.66;;;12.11;100.00
3590;BME280;1809;48.470;9.226;2022-09-12T00:23:37;96982.28;;;12.04;100.00
3590;BME280;1809;48.470;9.226;2022-09-12T00:26:04;96976.00;;;12.08;100.00
3590;BME280;1809;48.470;9.226;2022-09-12T00:28:32;96970.47;;;12.05;100.00
3590;BME280;1809;48.470;9.226;2022-09-12T00:30:58;96969.88;;;12.08;100.00
3590;BME280;1809;48.470;9.226;2022-09-12T00:33:23;96973.22;;;12.00;100.00
3590;BME280;1809;48.470;9.226;2022-09-12T00:35:50;96973.22;;;12.00;100.00
3590;BME280;1809;48.470;9.226;2022-09-12T00:38:18;96966.09;;;11.95;100.00
3590;BME280;1809;48.470;9.226;2022-09-12T00:40:44;96964.28;;;11.91;100.00
3590;BME280;1809;48.470;9.226;2022-09-12T00:45:56;96962.19;;;11.88;100.00
3590;BME280;1809;48.470;9.226;2022-09-12T00:48:29;96965.38;;;11.90;100.00
3590;BME280;1809;48.470;9.226;2022-09-12T00:50:57;96959.53;;;11.88;100.00
3590;BME280;1809;48.470;9.226;2022-09-12T00:53:22;96963.09;;;11.97;100.00
3590;BME280;1809;48.470;9.226;2022-09-12T00:55:50;96957.56;;;12.07;100.00
3590;BME280;1809;48.470;9.226;2022-09-12T00:58:27;96957.75;;;12.10;100.00
3590;BME280;1809;48.470;9.226;2022-09-12T01:00:54;96961.53;;;12.09;100.00
3590;BME280;1809;48.470;9.226;2022-09-12T01:03:21;96955.47;;;12.04;100.00
3590;BME280;1809;48.470;9.226;2022-09-12T01:05:58;96959.34;;;11.98;100.00
3590;BME280;1809;48.470;9.226;2022-09-12T01:08:27;96947.50;;;11.99;100.00
3590;BME280;1809;48.470;9.226;2022-09-12T01:10:53;96942.06;;;11.90;100.00
3590;BME280;1809;48.470;9.226;2022-09-12T01:13:19;96939.25;;;11.81;100.00
3590;BME280;1809;48.470;9.226;2022-09-12T01:15:45;96937.28;;;11.73;100.00
3590;BME280;1809;48.470;9.226;2022-09-12T01:32:22;96944.13;;;11.47;100.00
3590;BME280;1809;48.470;9.226;2022-09-12T01:40:26;96926.88;;;11.53;100.00
3590;BME280;1809;48.470;9.226;2022-09-12T01:43:03;96935.16;;;11.38;100.00
3590;BME280;1809;48.470;9.226;2022-09-12T01:45:39;96936.94;;;11.29;100.00
3590;BME280;1809;48.470;9.226;2022-09-12T01:48:14;96930.94;;;11.18;100.00
3590;BME280;1809;48.470;9.226;2022-09-12T01:51:04;96924.38;;;11.11;100.00
3590;BME280;1809;48.470;9.226;2022-09-12T01:53:38;96925.94;;;11.12;100.00
3590;BME280;1809;48.470;9.226;2022-09-12T01:56:22;96910.69;;;11.12;100.00
3590;BME280;1809;48.470;9.226;2022-09-12T01:58:56;96915.59;;;11.05;100.00
3590;BME280;1809;48.470;9.226;2022-09-12T02:01:29;96906.22;;;11.08;100.00
3590;BME280;1809;48.470;9.226;2022-09-12T02:04:04;96905.28;;;10.99;100.00
3590;BME280;1809;48.470;9.226;2022-09-12T02:06:39;96906.28;;;11.03;100.00
3590;BME280;1809;48.470;9.226;2022-09-12T02:09:20;96908.25;;;10.97;100.00
3590;BME280;1809;48.470;9.226;2022-09-12T02:11:49;96898.44;;;10.93;100.00
3590;BME280;1809;48.470;9.226;2022-09-12T02:14:22;96901.16;;;10.88;100.00
3590;BME280;1809;48.470;9.226;2022-09-12T02:17:00;96897.34;;;10.94;100.00
3590;BME280;1809;48.470;9.226;2022-09-12T02:19:33;96900.31;;;10.92;100.00
3590;BME280;1809;48.470;9.226;2022-09-12T02:22:02;96889.97;;;10.86;100.00
3590;BME280;1809;48.470;9.226;2022-09-12T02:24:32;96889.97;;;10.86;100.00
3590;BME280;1809;48.470;9.226;2022-09-12T02:27:05;96893.50;;;10.81;100.00
3590;BME280;1809;48.470;9.226;2022-09-12T02:29:34;96886.00;;;10.83;100.00
3590;BME280;1809;48.470;9.226;2022-09-12T02:32:36;96889.53;;;10.78;100.00
3590;BME280;1809;48.470;9.226;2022-09-12T02:35:18;96894.31;;;10.82;100.00
3590;BME280;1809;48.470;9.226;2022-09-12T02:38:01;96881.50;;;10.78;100.00
3590;BME280;1809;48.470;9.226;2022-09-12T02:40:29;96890.56;;;10.83;100.00
3590;BME280;1809;48.470;9.226;2022-09-12T02:42:55;96884.53;;;10.91;100.00
3590;BME280;1809;48.470;9.226;2022-09-12T02:45:20;96880.66;;;10.83;100.00
3590;BME280;1809;48.470;9.226;2022-09-12T02:48:10;96889.53;;;10.78;100.00
3590;BME280;1809;48.470;9.226;2022-09-12T02:50:37;96878.94;;;10.73;100.00
3590;BME280;1809;48.470;9.226;2022-09-12T02:53:04;96889.47;;;10.65;100.00
3590;BME280;1809;48.470;9.226;2022-09-12T02:55:32;96885.56;;;10.57;100.00
3590;BME280;1809;48.470;9.226;2022-09-12T02:58:00;96882.41;;;10.55;100.00
3590;BME280;1809;48.470;9.226;2022-09-12T03:00:29;96877.09;;;10.50;100.00
3590;BME280;1809;48.470;9.226;2022-09-12T03:05:58;96877.69;;;10.47;100.00
3590;BME280;1809;48.470;9.226;2022-09-12T03:19:42;96879.50;;;10.52;100.00
3590;BME280;1809;48.470;9.226;2022-09-12T03:24:56;96875.09;;;10.42;100.00
3590;BME280;1809;48.470;9.226;2022-09-12T03:27:36;96878.84;;;10.41;100.00
3590;BME280;1809;48.470;9.226;2022-09-12T03:30:04;96873.94;;;10.30;100.00
3590;BME280;1809;48.470;9.226;2022-09-12T03:32:41;96880.69;;;10.22;100.00
3590;BME280;1809;48.470;9.226;2022-09-12T03:35:06;96887.41;;;10.19;100.00
3590;BME280;1809;48.470;9.226;2022-09-12T03:37:32;96889.59;;;10.12;100.00
3590;BME280;1809;48.470;9.226;2022-09-12T03:39:57;96892.03;;;10.09;100.00
3590;BME280;1809;48.470;9.226;2022-09-12T03:42:23;96891.56;;;10.07;100.00
3590;BME280;1809;48.470;9.226;2022-09-12T03:44:48;96893.22;;;10.27;100.00
3590;BME280;1809;48.470;9.226;2022-09-12T03:47:13;96889.66;;;10.31;100.00
3590;BME280;1809;48.470;9.226;2022-09-12T03:49:38;96886.50;;;10.29;100.00
3590;BME280;1809;48.470;9.226;2022-09-12T03:52:04;96894.22;;;10.31;100.00
3590;BME280;1809;48.470;9.226;2022-09-12T03:54:29;96893.44;;;10.30;100.00
3590;BME280;1809;48.470;9.226;2022-09-12T03:56:54;96885.47;;;10.25;100.00
3590;BME280;1809;48.470;9.226;2022-09-12T03:59:20;96892.41;;;10.26;100.00
3590;BME280;1809;48.470;9.226;2022-09-12T04:01:45;96890.25;;;10.28;100.00
3590;BME280;1809;48.470;9.226;2022-09-12T04:04:10;96882.75;;;10.30;100.00
3590;BME280;1809;48.470;9.226;2022-09-12T04:06:36;96887.06;;;10.26;100.00
3590;BME280;1809;48.470;9.226;2022-09-12T04:09:01;96882.38;;;10.18;100.00
3590;BME280;1809;48.470;9.226;2022-09-12T04:11:26;96883.72;;;10.15;100.00
3590;BME280;1809;48.470;9.226;2022-09-12T04:13:52;96876.09;;;10.04;100.00
3590;BME280;1809;48.470;9.226;2022-09-12T04:16:17;96876.16;;;9.99;100.00
3590;BME280;1809;48.470;9.226;2022-09-12T04:18:43;96875.41;;;9.93;100.00
3590;BME280;1809;48.470;9.226;2022-09-12T04:21:14;96874.44;;;9.84;100.00
3590;BME280;1809;48.470;9.226;2022-09-12T04:23:41;96877.41;;;9.83;100.00
3590;BME280;1809;48.470;9.226;2022-09-12T04:26:06;96878.81;;;9.75;100.00
3590;BME280;1809;48.470;9.226;2022-09-12T04:28:33;96886.59;;;9.71;100.00
3590;BME280;1809;48.470;9.226;2022-09-12T04:31:07;96878.56;;;9.77;100.00
3590;BME280;1809;48.470;9.226;2022-09-12T04:33:34;96881.22;;;9.77;100.00
3590;BME280;1809;48.470;9.226;2022-09-12T04:36:14;96884.50;;;9.68;100.00
3590;BME280;1809;48.470;9.226;2022-09-12T04:38:45;96881.81;;;9.68;100.00
3590;BME280;1809;48.470;9.226;2022-09-12T04:41:11;96885.06;;;9.65;100.00
3590;BME280;1809;48.470;9.226;2022-09-12T04:43:37;96884.47;;;9.73;100.00
3590;BME280;1809;48.470;9.226;2022-09-12T04:46:06;96888.19;;;9.72;100.00
3590;BME280;1809;48.470;9.226;2022-09-12T04:48:32;96886.50;;;9.82;100.00
3590;BME280;1809;48.470;9.226;2022-09-12T04:51:06;96894.97;;;9.89;100.00
3590;BME280;1809;48.470;9.226;2022-09-12T04:53:31;96884.63;;;9.82;100.00
3590;BME280;1809;48.470;9.226;2022-09-12T04:56:01;96886.50;;;9.82;100.00
3590;BME280;1809;48.470;9.226;2022-09-12T04:58:26;96893.22;;;9.79;100.00
3590;BME280;1809;48.470;9.226;2022-09-12T05:00:52;96893.47;;;9.78;100.00
3590;BME280;1809;48.470;9.226;2022-09-12T05:03:17;96896.69;;;9.80;100.00
3590;BME280;1809;48.470;9.226;2022-09-12T05:05:42;96897.19;;;9.82;100.00
3590;BME280;1809;48.470;9.226;2022-09-12T05:08:08;96897.50;;;9.75;100.00
3590;BME280;1809;48.470;9.226;2022-09-12T05:10:33;96893.78;;;9.76;100.00
3590;BME280;1809;48.470;9.226;2022-09-12T05:12:58;96893.59;;;9.91;100.00
3590;BME280;1809;48.470;9.226;2022-09-12T05:15:23;96895.94;;;9.98;100.00
3590;BME280;1809;48.470;9.226;2022-09-12T05:17:49;96889.44;;;10.04;100.00
3590;BME280;1809;48.470;9.226;2022-09-12T05:20:15;96891.63;;;10.02;100.00
3590;BME280;1809;48.470;9.226;2022-09-12T05:22:41;96883.16;;;9.95;100.00
3590;BME280;1809;48.470;9.226;2022-09-12T05:25:07;96896.97;;;10.02;100.00
3590;BME280;1809;48.470;9.226;2022-09-12T05:27:32;96888.31;;;10.10;100.00
3590;BME280;1809;48.470;9.226;2022-09-12T05:29:58;96892.50;;;10.21;100.00
3590;BME280;1809;48.470;9.226;2022-09-12T05:32:23;96894.44;;;10.34;100.00
3590;BME280;1809;48.470;9.226;2022-09-12T05:34:49;96896.50;;;10.79;100.00
3590;BME280;1809;48.470;9.226;2022-09-12T05:37:16;96898.66;;;11.74;100.00
3590;BME280;1809;48.470;9.226;2022-09-12T05:39:41;96898.44;;;12.88;100.00
3590;BME280;1809;48.470;9.226;2022-09-12T05:42:06;96892.44;;;13.58;100.00
3590;BME280;1809;48.470;9.226;2022-09-12T05:44:33;96892.19;;;14.64;100.00
3590;BME280;1809;48.470;9.226;2022-09-12T05:46:58;96891.84;;;15.60;100.00
3590;BME280;1809;48.470;9.226;2022-09-12T05:49:23;96889.16;;;16.06;100.00
3590;BME280;1809;48.470;9.226;2022-09-12T05:51:49;96889.72;;;16.21;100.00
3590;BME280;1809;48.470;9.226;2022-09-12T05:54:18;96891.59;;;16.58;100.00
3590;BME280;1809;48.470;9.226;2022-09-12T05:56:45;96899.44;;;17.79;100.00
3590;BME280;1809;48.470;9.226;2022-09-12T05:59:13;96904.81;;;18.60;100.00
3590;BME280;1809;48.470;9.226;2022-09-12T06:01:39;96913.78;;;19.00;100.00
3590;BME280;1809;48.470;9.226;2022-09-12T06:04:05;96913.66;;;19.49;100.00
3590;BME280;1809;48.470;9.226;2022-09-12T06:06:35;96929.94;;;19.37;100.00
3590;BME280;1809;48.470;9.226;2022-09-12T06:09:03;96921.78;;;19.92;100.00
3590;BME280;1809;48.470;9.226;2022-09-12T06:11:31;96927.09;;;20.32;100.00
3590;BME280;1809;48.470;9.226;2022-09-12T06:13:58;96925.91;;;19.86;100.00
3590;BME280;1809;48.470;9.226;2022-09-12T06:16:26;96938.16;;;20.11;100.00
3590;BME280;1809;48.470;9.226;2022-09-12T06:18:54;96930.81;;;20.59;100.00
3590;BME280;1809;48.470;9.226;2022-09-12T06:21:21;96932.13;;;20.02;100.00
3590;BME280;1809;48.470;9.226;2022-09-12T06:23:47;96938.78;;;19.89;100.00
3590;BME280;1809;48.470;9.226;2022-09-12T06:26:13;96938.09;;;19.92;100.00
3590;BME280;1809;48.470;9.226;2022-09-12T06:28:41;96935.59;;;19.87;100.00
3590;BME280;1809;48.470;9.226;2022-09-12T06:31:10;96934.06;;;19.58;100.00
3590;BME280;1809;48.470;9.226;2022-09-12T06:33:40;96925.38;;;19.13;100.00
3590;BME280;1809;48.470;9.226;2022-09-12T06:36:11;96929.31;;;19.83;100.00
3590;BME280;1809;48.470;9.226;2022-09-12T06:38:38;96928.63;;;19.86;100.00
3590;BME280;1809;48.470;9.226;2022-09-12T06:41:04;96930.16;;;18.07;100.00
3590;BME280;1809;48.470;9.226;2022-09-12T06:43:31;96927.94;;;18.09;100.00
3590;BME280;1809;48.470;9.226;2022-09-12T06:45:57;96925.81;;;17.69;100.00
3590;BME280;1809;48.470;9.226;2022-09-12T06:48:23;96919.13;;;17.34;100.00
3590;BME280;1809;48.470;9.226;2022-09-12T06:53:25;96925.34;;;17.47;100.00
3590;BME280;1809;48.470;9.226;2022-09-12T06:55:59;96920.84;;;16.56;100.00
3590;BME280;1809;48.470;9.226;2022-09-12T06:58:25;96913.44;;;16.06;100.00
3590;BME280;1809;48.470;9.226;2022-09-12T07:00:51;96907.06;;;16.11;100.00
3590;BME280;1809;48.470;9.226;2022-09-12T07:03:16;96915.44;;;15.63;100.00
3590;BME280;1809;48.470;9.226;2022-09-12T07:05:43;96910.88;;;15.29;100.00
3590;BME280;1809;48.470;9.226;2022-09-12T07:08:09;96911.69;;;15.04;100.00
3590;BME280;1809;48.470;9.226;2022-09-12T07:10:34;96911.22;;;15.11;100.00
3590;BME280;1809;48.470;9.226;2022-09-12T07:12:59;96904.56;;;15.17;100.00
3590;BME280;1809;48.470;9.226;2022-09-12T07:15:25;96907.56;;;15.32;100.00
3590;BME280;1809;48.470;9.226;2022-09-12T07:17:51;96908.97;;;15.38;100.00
3590;BME280;1809;48.470;9.226;2022-09-12T07:20:16;96910.25;;;15.24;100.00
3590;BME280;1809;48.470;9.226;2022-09-12T07:22:42;96907.41;;;15.12;100.00
3590;BME280;1809;48.470;9.226;2022-09-12T07:25:07;96902.81;;;15.21;100.00
3590;BME280;1809;48.470;9.226;2022-09-12T07:27:33;96897.59;;;15.24;100.00
3590;BME280;1809;48.470;9.226;2022-09-12T07:29:58;96898.88;;;15.18;100.00
3590;BME280;1809;48.470;9.226;2022-09-12T07:32:24;96899.97;;;14.91;100.00
3590;BME280;1809;48.470;9.226;2022-09-12T07:34:50;96905.06;;;15.19;100.00
3590;BME280;1809;48.470;9.226;2022-09-12T07:37:16;96907.25;;;15.34;100.00
3590;BME280;1809;48.470;9.226;2022-09-12T07:39:41;96910.88;;;15.29;100.00
3590;BME280;1809;48.470;9.226;2022-09-12T07:42:10;96902.50;;;15.31;100.00
3590;BME280;1809;48.470;9.226;2022-09-12T07:44:36;96893.78;;;15.34;100.00
3590;BME280;1809;48.470;9.226;2022-09-12T07:47:02;96894.88;;;15.33;100.00
3590;BME280;1809;48.470;9.226;2022-09-12T07:49:27;96892.97;;;15.42;100.00
3590;BME280;1809;48.470;9.226;2022-09-12T07:51:53;96896.78;;;15.41;100.00
3590;BME280;1809;48.470;9.226;2022-09-12T07:54:18;96891.41;;;15.41;100.00
3590;BME280;1809;48.470;9.226;2022-09-12T07:56:44;96903.44;;;15.52;100.00
3590;BME280;1809;48.470;9.226;2022-09-12T07:59:09;96892.66;;;15.52;100.00
3590;BME280;1809;48.470;9.226;2022-09-12T08:01:35;96891.56;;;15.53;100.00
3590;BME280;1809;48.470;9.226;2022-09-12T08:04:00;96886.88;;;15.79;100.00
3590;BME280;1809;48.470;9.226;2022-09-12T08:06:27;96889.16;;;15.98;100.00
3590;BME280;1809;48.470;9.226;2022-09-12T08:08:56;96888.22;;;16.32;100.00
3590;BME280;1809;48.470;9.226;2022-09-12T08:11:22;96890.09;;;16.40;100.00
3590;BME280;1809;48.470;9.226;2022-09-12T08:13:48;96884.53;;;16.36;100.00
3590;BME280;1809;48.470;9.226;2022-09-12T08:16:17;96889.03;;;16.61;100.00
3590;BME280;1809;48.470;9.226;2022-09-12T08:18:44;96881.84;;;16.86;100.00
3590;BME280;1809;48.470;9.226;2022-09-12T08:21:17;96889.34;;;17.01;100.00
3590;BME280;1809;48.470;9.226;2022-09-12T08:23:44;96890.34;;;16.97;100.00
3590;BME280;1809;48.470;9.226;2022-09-12T08:26:11;96902.13;;;17.13;100.00
3590;BME280;1809;48.470;9.226;2022-09-12T08:28:37;96899.66;;;17.41;100.00
3590;BME280;1809;48.470;9.226;2022-09-12T08:31:10;96897.66;;;17.50;100.00
3590;BME280;1809;48.470;9.226;2022-09-12T08:33:36;96893.97;;;17.54;100.00
3590;BME280;1809;48.470;9.226;2022-09-12T08:36:38;96895.94;;;17.66;100.00
3590;BME280;1809;48.470;9.226;2022-09-12T08:38:59;96886.06;;;17.82;100.00
3590;BME280;1809;48.470;9.226;2022-09-12T08:41:34;96888.31;;;17.92;100.00
3590;BME280;1809;48.470;9.226;2022-09-12T08:52:28;96878.66;;;18.52;100.00
3590;BME280;1809;48.470;9.226;2022-09-12T08:54:55;96890.16;;;18.61;100.00
3590;BME280;1809;48.470;9.226;2022-09-12T08:57:22;96891.47;;;18.79;100.00
3590;BME280;1809;48.470;9.226;2022-09-12T08:59:48;96899.56;;;18.91;100.00
3590;BME280;1809;48.470;9.226;2022-09-12T09:04:50;96882.41;;;19.27;100.00
3590;BME280;1809;48.470;9.226;2022-09-12T09:18:33;96881.41;;;19.91;100.00
3590;BME280;1809;48.470;9.226;2022-09-12T09:21:08;96887.91;;;20.17;100.00
3590;BME280;1809;48.470;9.226;2022-09-12T09:23:41;96881.41;;;20.22;100.00
3590;BME280;1809;48.470;9.226;2022-09-12T09:26:17;96890.53;;;20.45;100.00
3590;BME280;1809;48.470;9.226;2022-09-12T09:28:53;96889.72;;;20.60;100.00
3590;BME280;1809;48.470;9.226;2022-09-12T09:31:21;96889.34;;;20.62;100.00
3590;BME280;1809;48.470;9.226;2022-09-12T09:33:49;96883.69;;;20.51;100.00
3590;BME280;1809;48.470;9.226;2022-09-12T09:36:18;96892.81;;;20.78;100.00
3590;BME280;1809;48.470;9.226;2022-09-12T09:42:06;96883.56;;;21.36;100.00
3590;BME280;1809;48.470;9.226;2022-09-12T09:44:32;96879.25;;;21.55;100.00
3590;BME280;1809;48.470;9.226;2022-09-12T09:46:58;96883.78;;;21.66;100.00
3590;BME280;1809;48.470;9.226;2022-09-12T09:49:27;96887.84;;;21.76;100.00
3590;BME280;1809;48.470;9.226;2022-09-12T09:51:54;96884.81;;;21.81;100.00
3590;BME280;1809;48.470;9.226;2022-09-12T09:54:34;96882.03;;;21.77;100.00
3590;BME280;1809;48.470;9.226;2022-09-12T09:57:00;96881.66;;;21.79;100.00
3590;BME280;1809;48.470;9.226;2022-09-12T09:59:28;96891.44;;;22.03;100.00
3590;BME280;1809;48.470;9.226;2022-09-12T10:04:24;96874.28;;;22.47;100.00
3590;BME280;1809;48.470;9.226;2022-09-12T10:06:55;96875.75;;;22.41;100.00
3590;BME280;1809;48.470;9.226;2022-09-12T10:10:32;96874.47;;;22.62;100.00
3590;BME280;1809;48.470;9.226;2022-09-12T10:12:33;96878.25;;;22.80;100.00
3590;BME280;1809;48.470;9.226;2022-09-12T10:15:12;96885.06;;;22.93;100.00
3590;BME280;1809;48.470;9.226;2022-09-12T10:17:45;96876.75;;;23.12;100.00
3590;BME280;1809;48.470;9.226;2022-09-12T10:25:54;96882.38;;;23.26;100.00
3590;BME280;1809;48.470;9.226;2022-09-12T10:28:42;96876.13;;;23.55;100.00
3590;BME280;1809;48.470;9.226;2022-09-12T10:31:10;96872.50;;;23.15;100.00
3590;BME280;1809;48.470;9.226;2022-09-12T10:33:47;96877.91;;;23.11;100.00
3590;BME280;1809;48.470;9.226;2022-09-12T10:36:18;96878.34;;;23.13;100.00
3590;BME280;1809;48.470;9.226;2022-09-12T10:38:52;96869.03;;;23.47;100.00
3590;BME280;1809;48.470;9.226;2022-09-12T10:41:19;96870.03;;;23.73;100.00
3590;BME280;1809;48.470;9.226;2022-09-12T10:43:46;96878.19;;;23.66;100.00
3590;BME280;1809;48.470;9.226;2022-09-12T10:48:44;96871.66;;;23.77;100.00
3590;BME280;1809;48.470;9.226;2022-09-12T10:53:48;96876.78;;;23.82;100.00
3590;BME280;1809;48.470;9.226;2022-09-12T10:56:22;96868.06;;;23.70;100.00
3590;BME280;1809;48.470;9.226;2022-09-12T10:58:58;96870.19;;;23.87;100.00
3590;BME280;1809;48.470;9.226;2022-09-12T11:07:01;96867.31;;;24.13;100.00
3590;BME280;1809;48.470;9.226;2022-09-12T11:09:56;96856.22;;;24.39;100.00
3590;BME280;1809;48.470;9.226;2022-09-12T11:15:02;96851.66;;;24.57;100.00
3590;BME280;1809;48.470;9.226;2022-09-12T11:17:52;96854.63;;;24.38;100.00
3590;BME280;1809;48.470;9.226;2022-09-12T11:29:03;96848.47;;;24.48;100.00
3590;BME280;1809;48.470;9.226;2022-09-12T11:34:09;96844.31;;;24.76;100.00
3590;BME280;1809;48.470;9.226;2022-09-12T11:39:15;96837.97;;;24.57;100.00
3590;BME280;1809;48.470;9.226;2022-09-12T11:41:49;96840.00;;;24.68;100.00
3590;BME280;1809;48.470;9.226;2022-09-12T11:44:25;96827.44;;;24.59;100.00
3590;BME280;1809;48.470;9.226;2022-09-12T11:46:52;96835.44;;;24.86;100.00
3590;BME280;1809;48.470;9.226;2022-09-12T11:52:21;96835.13;;;25.05;100.00
3590;BME280;1809;48.470;9.226;2022-09-12T11:57:51;96825.28;;;24.90;100.00
3590;BME280;1809;48.470;9.226;2022-09-12T12:00:23;96815.13;;;24.87;97.93
3590;BME280;1809;48.470;9.226;2022-09-12T12:05:36;96813.53;;;24.86;96.03
3590;BME280;1809;48.470;9.226;2022-09-12T12:08:05;96814.31;;;24.83;90.73
3590;BME280;1809;48.470;9.226;2022-09-12T12:10:58;96818.31;;;25.03;87.84
3590;BME280;1809;48.470;9.226;2022-09-12T12:18:58;96822.94;;;24.92;85.01
3590;BME280;1809;48.470;9.226;2022-09-12T12:29:04;96805.75;;;24.95;80.86
3590;BME280;1809;48.470;9.226;2022-09-12T12:34:30;96800.78;;;25.22;89.23
3590;BME280;1809;48.470;9.226;2022-09-12T12:36:56;96800.00;;;25.28;88.16
3590;BME280;1809;48.470;9.226;2022-09-12T12:41:57;96790.50;;;24.97;79.13
3590;BME280;1809;48.470;9.226;2022-09-12T12:50:00;96783.53;;;24.35;92.82
3590;BME280;1809;48.470;9.226;2022-09-12T12:58:36;96786.75;;;24.51;99.02
3590;BME280;1809;48.470;9.226;2022-09-12T13:01:12;96788.44;;;24.77;93.58
3590;BME280;1809;48.470;9.226;2022-09-12T13:03:44;96775.63;;;24.88;86.99
3590;BME280;1809;48.470;9.226;2022-09-12T13:09:06;96768.88;;;24.68;94.88
3590;BME280;1809;48.470;9.226;2022-09-12T13:11:38;96770.16;;;24.88;93.08
3590;BME280;1809;48.470;9.226;2022-09-12T13:14:05;96761.81;;;24.59;90.54
3590;BME280;1809;48.470;9.226;2022-09-12T13:16:50;96762.13;;;24.47;90.61
3590;BME280;1809;48.470;9.226;2022-09-12T13:19:25;96757.16;;;24.67;88.83
3590;BME280;1809;48.470;9.226;2022-09-12T13:21:55;96757.13;;;24.63;93.78
3590;BME280;1809;48.470;9.226;2022-09-12T13:24:22;96763.38;;;24.64;97.38
3590;BME280;1809;48.470;9.226;2022-09-12T13:26:48;96753.28;;;24.79;97.29
3590;BME280;1809;48.470;9.226;2022-09-12T13:29:24;96756.06;;;24.82;97.23
3590;BME280;1809;48.470;9.226;2022-09-12T13:31:54;96753.34;;;24.89;92.29
3590;BME280;1809;48.470;9.226;2022-09-12T13:34:27;96751.50;;;25.18;86.38
3590;BME280;1809;48.470;9.226;2022-09-12T13:43:15;96745.63;;;25.09;89.64
3590;BME280;1809;48.470;9.226;2022-09-12T13:45:44;96743.63;;;24.99;86.67
3590;BME280;1809;48.470;9.226;2022-09-12T13:48:17;96742.44;;;24.96;87.69
3590;BME280;1809;48.470;9.226;2022-09-12T13:50:51;96736.19;;;24.96;85.12
3590;BME280;1809;48.470;9.226;2022-09-12T13:53:20;96743.22;;;25.04;88.77
3590;BME280;1809;48.470;9.226;2022-09-12T13:55:51;96739.34;;;25.05;91.89
3590;BME280;1809;48.470;9.226;2022-09-12T13:58:28;96740.06;;;24.91;91.70
3590;BME280;1809;48.470;9.226;2022-09-12T14:03:40;96733.88;;;25.05;89.86
3590;BME280;1809;48.470;9.226;2022-09-12T14:06:24;96722.50;;;24.96;87.25
3590;BME280;1809;48.470;9.226;2022-09-12T14:08:52;96717.38;;;24.91;86.62
3590;BME280;1809;48.470;9.226;2022-09-12T14:11:26;96719.38;;;25.01;88.95
3590;BME280;1809;48.470;9.226;2022-09-12T14:13:52;96717.47;;;25.12;86.04
3590;BME280;1809;48.470;9.226;2022-09-12T14:16:19;96716.66;;;25.08;84.76
3590;BME280;1809;48.470;9.226;2022-09-12T14:18:46;96714.22;;;24.78;84.96
3590;BME280;1809;48.470;9.226;2022-09-12T14:23:58;96717.81;;;25.00;83.54
3590;BME280;1809;48.470;9.226;2022-09-12T14:26:29;96707.28;;;25.02;86.51
3590;BME280;1809;48.470;9.226;2022-09-12T14:28:58;96706.88;;;25.03;84.61
3590;BME280;1809;48.470;9.226;2022-09-12T14:31:28;96713.13;;;24.97;89.90
3590;BME280;1809;48.470;9.226;2022-09-12T14:34:17;96704.94;;;25.11;93.71
3590;BME280;1809;48.470;9.226;2022-09-12T14:36:49;96695.16;;;25.17;89.31
3590;BME280;1809;48.470;9.226;2022-09-12T14:39:24;96698.69;;;25.28;84.39
3590;BME280;1809;48.470;9.226;2022-09-12T14:42:00;96695.19;;;25.38;87.35
3590;BME280;1809;48.470;9.226;2022-09-12T14:44:27;96691.28;;;25.39;85.59
3590;BME280;1809;48.470;9.226;2022-09-12T14:46:53;96686.63;;;25.54;80.53
3590;BME280;1809;48.470;9.226;2022-09-12T14:56:59;96673.66;;;25.23;87.68
3590;BME280;1809;48.470;9.226;2022-09-12T14:59:37;96674.44;;;25.20;90.32
3590;BME280;1809;48.470;9.226;2022-09-12T15:04:42;96672.81;;;24.83;96.31
3590;BME280;1809;48.470;9.226;2022-09-12T15:09:39;96667.00;;;25.09;92.22
3590;BME280;1809;48.470;9.226;2022-09-12T15:12:07;96663.09;;;25.00;91.98
3590;BME280;1809;48.470;9.226;2022-09-12T15:14:32;96662.69;;;25.05;94.04
3590;BME280;1809;48.470;9.226;2022-09-12T15:16:58;96664.25;;;25.13;88.89
3590;BME280;1809;48.470;9.226;2022-09-12T15:19:23;96663.09;;;25.07;92.95
3590;BME280;1809;48.470;9.226;2022-09-12T15:21:48;96662.72;;;25.12;91.26
3590;BME280;1809;48.470;9.226;2022-09-12T15:24:14;96667.78;;;24.96;89.75
3590;BME280;1809;48.470;9.226;2022-09-12T15:26:39;96667.00;;;25.06;88.80
3590;BME280;1809;48.470;9.226;2022-09-12T15:29:04;96671.69;;;25.05;86.67
3590;BME280;1809;48.470;9.226;2022-09-12T15:31:30;96670.13;;;25.08;90.51
3590;BME280;1809;48.470;9.226;2022-09-12T15:33:59;96664.66;;;25.08;89.88
3590;BME280;1809;48.470;9.226;2022-09-12T15:36:25;96663.50;;;25.20;90.67
3590;BME280;1809;48.470;9.226;2022-09-12T15:38:51;96663.50;;;25.09;89.93
3590;BME280;1809;48.470;9.226;2022-09-12T15:41:30;96669.69;;;24.85;95.22
3590;BME280;1809;48.470;9.226;2022-09-12T15:43:56;96663.44;;;24.88;97.75
3590;BME280;1809;48.470;9.226;2022-09-12T15:46:21;96667.38;;;25.01;96.94
3590;BME280;1809;48.470;9.226;2022-09-12T15:48:47;96659.59;;;25.21;95.60
3590;BME280;1809;48.470;9.226;2022-09-12T15:51:17;96660.38;;;25.00;96.59
3590;BME280;1809;48.470;9.226;2022-09-12T15:53:43;96663.84;;;25.00;96.63
3590;BME280;1809;48.470;9.226;2022-09-12T15:56:09;96654.88;;;25.10;97.28
3590;BME280;1809;48.470;9.226;2022-09-12T15:58:34;96657.22;;;25.19;100.00
3590;BME280;1809;48.470;9.226;2022-09-12T16:01:00;96656.44;;;25.01;100.00
3590;BME280;1809;48.470;9.226;2022-09-12T16:03:28;96650.97;;;25.08;100.00
3590;BME280;1809;48.470;9.226;2022-09-12T16:06:01;96649.41;;;25.07;99.18
3590;BME280;1809;48.470;9.226;2022-09-12T16:08:28;96643.94;;;25.10;96.34
3590;BME280;1809;48.470;9.226;2022-09-12T16:10:58;96630.59;;;24.88;99.42
3590;BME280;1809;48.470;9.226;2022-09-12T16:13:24;96630.97;;;24.79;97.42
3590;BME280;1809;48.470;9.226;2022-09-12T16:15:50;96625.44;;;24.61;98.67